Flood From: 23-05-2019 23:00 Until: 25-05-2019 22:59 warning for: Flood Level: Yellow info button
Snow/Ice From: 25-05-2019 17:00 Until: 26-05-2019 06:00 warning for: Snow/Ice Level: Yellow info button


Varsler for Snø/Is more information rain snow radar



Nære METAR værraporter

   
ENGM - Oslo
Oppdatert: 25-05-2019 02:50
Klart  
Klart  
   Vind: Nord 1.5 m/s
Vind: Nord 1.5 m/s
Temperatur: 8°C
Wind Chill: 7°C
Duggpunkt: 5°C
Luftfuktighet: 82%
Barometer: 1005 hPa
Sikt: More than 10 km
Detaljer skyer: Klart
ENGM 250050Z 35003KT 320V020 CAVOK 08/05 Q1005
ENTO - Sandefjord
Oppdatert: 25-05-2019 02:50
Klart  
Klart  
   Vind: varierende 0.5 m/s
Vind: varierende 0.5 m/s
Temperatur: 8°C
Duggpunkt: 7°C
Luftfuktighet: 93%
Barometer: 1006 hPa
Skyer: Klart
Sikt: More than 10 km
Detaljer skyer: Klart
ENTO 250050Z AUTO VRB01KT 9999 NCD 08/07 Q1006
ENNO - Notodden
Oppdatert: 24-05-2019 18:50
Oppdatert, se klokkeslett
Delvis skyet  
Delvis skyet  
   Vind: Stille
Vind: Stille
Temperatur: 17°C
Duggpunkt: 9°C
Luftfuktighet: 59%
Barometer: 1004 hPa
Skyer: Delvis skyet
Sikt: More than 10 km
Detaljer skyer: Delvis skyet 1981.2 m
ENNO 241650Z 00000KT 9999 SCT065 17/09 Q1004
ENRY - Rygge
Oppdatert: 25-05-2019 02:50
Klart  
Klart  
   Vind: varierende 1 m/s
Vind: varierende 1 m/s
Temperatur: 7°C
Duggpunkt: 6°C
Luftfuktighet: 93%
Barometer: 1006 hPa
Skyer: Klart
Sikt: 10 km
Detaljer skyer: Klart
ENRY 250050Z AUTO VRB02KT 9999NDV NCD 07/06 Q1006
ENSN - Skien
Oppdatert: 09-11-2015 09:50
Oppdatert, se klokkeslett
Klart  
Klart  
   Vind: SSV 5.1 m/s<br />Gust to 5.1 m/s
Vind: SSV 5.1 m/s
Gust to 5.1 m/s
Temperatur: 7°C
Wind Chill: 4°C
Duggpunkt: 3°C
Luftfuktighet: 76%
Barometer: 1000 hPa
Sikt: More than 10 km
Detaljer skyer: Klart
ENSN 090850Z 20010G22KT 150V240 CAVOK 07/03 Q1000
ENFG - Fagernes
Oppdatert: 22-04-2018 10:50
Oppdatert, se klokkeslett
Klart  
Klart  
   Vind: Sør 3.6 m/s
Vind: Sør 3.6 m/s
Temperatur: 6°C
Wind Chill: 3°C
Duggpunkt: -3°C
Luftfuktighet: 53%
Barometer: 1014 hPa
Sikt: More than 10 km
Detaljer skyer: Klart
ENFG 220850Z 19007KT CAVOK 06/M03 Q1014

Script utviklet av  Saratoga-weather.org Tilpasset for tamplaten av  Weerstation Leuven

Du finner min vær info også på:

European Weather Network

Weather Underground

European Weather Network